Air Navigation Services of Czech Republic
Airport: LKTB Updated:  25.03.2019 22:01:06  UTC
 METAR LKTB 25.03. 22:00 ...
METAR LKTB 252200Z 31004KT 9999 FEW030 03/M01 Q1018 NOSIG RMK REG QNH 1014=
 TAF LKTB 25.03. 17:00 ...
TAF LKTB 251700Z 2518/2700 31012KT 9999 BKN035      TEMPO 2518/2520 32014G30KT 5000 SHRA BKN017TCU      TEMPO 2611/2618 33018G34KT=